Terminal Aerodrome Forecast
Issued by NWS Twin Cities, MN

Home | Current Version | Previous Version | Text Only | Print | Product List | Glossary On
Versions: 1 2 3 4 5 6 7 8 9 10 11 12 13 14 15 16 17 18 19 20 21 22 23 24 25 26 27 28
916
FTUS43 KMPX 212334
TAFMSP
TAF
KMSP 212334Z 2200/2306 14012KT P6SM FEW035
     FM220300 16012KT P6SM SCT050
     FM220400 15010KT P6SM BKN050 OVC150 WS020/20040KT
     FM221500 17013G20KT P6SM SCT150
     FM230100 18014KT P6SM BKN150=

USA.gov is the U.S. government's official web portal to all federal, state and local government web resources and services.